createdAt,value
2019-02-15T00:01:27.589Z,24.05
2019-02-15T00:03:55.641Z,24.85
2019-02-15T00:06:23.746Z,24.12
2019-02-15T00:08:51.673Z,23.73
2019-02-15T00:11:19.817Z,23.70
2019-02-15T00:13:47.892Z,25.75
2019-02-15T00:16:15.838Z,23.25
2019-02-15T00:18:53.258Z,25.60
2019-02-15T00:21:24.084Z,25.27
2019-02-15T00:23:52.191Z,23.70
2019-02-15T00:26:21.045Z,24.02
2019-02-15T00:28:49.257Z,25.23
2019-02-15T00:31:19.661Z,23.85
2019-02-15T00:33:47.521Z,23.75
2019-02-15T00:36:15.443Z,24.52
2019-02-15T00:38:43.383Z,22.20
2019-02-15T00:41:11.417Z,25.85
2019-02-15T00:43:39.485Z,25.52
2019-02-15T00:46:35.634Z,25.95
2019-02-15T00:49:05.712Z,25.15
2019-02-15T00:52:02.414Z,24.90
2019-02-15T00:55:02.204Z,24.47
2019-02-15T00:57:48.190Z,25.08
2019-02-15T01:00:34.822Z,23.10
2019-02-15T01:03:23.332Z,22.90
2019-02-15T01:06:10.896Z,23.32
2019-02-15T01:08:55.039Z,23.42
2019-02-15T01:11:37.339Z,21.17
2019-02-15T01:14:05.430Z,22.95
2019-02-15T01:16:33.385Z,22.20
2019-02-15T01:19:01.535Z,25.15
2019-02-15T01:21:29.620Z,22.25
2019-02-15T01:23:57.833Z,24.65
2019-02-15T01:26:40.306Z,21.90
2019-02-15T01:29:28.121Z,21.90
2019-02-15T01:32:22.084Z,20.75
2019-02-15T01:34:58.719Z,21.02
2019-02-15T01:38:01.558Z,21.23
2019-02-15T01:40:39.599Z,21.20
2019-02-15T01:43:20.385Z,22.17
2019-02-15T01:46:06.412Z,21.55
2019-02-15T01:48:34.246Z,17.50
2019-02-15T01:51:02.293Z,20.43
2019-02-15T01:53:30.395Z,17.57
2019-02-15T01:55:58.842Z,18.87
2019-02-15T01:58:26.728Z,19.23
2019-02-15T02:00:54.685Z,19.20
2019-02-15T02:03:22.686Z,19.20
2019-02-15T02:05:50.627Z,19.35
2019-02-15T02:08:22.497Z,20.05
2019-02-15T02:10:50.636Z,20.75
2019-02-15T02:13:18.956Z,21.93
2019-02-15T02:15:47.012Z,23.42
2019-02-15T02:18:15.588Z,22.73
2019-02-15T02:20:44.577Z,21.15
2019-02-15T02:23:12.647Z,21.77
2019-02-15T02:25:40.786Z,21.27
2019-02-15T02:28:09.140Z,20.50
2019-02-15T02:30:37.022Z,21.90
2019-02-15T02:33:04.946Z,23.35
2019-02-15T02:35:33.113Z,20.57
2019-02-15T02:38:01.761Z,19.45
2019-02-15T02:40:29.717Z,22.48
2019-02-15T02:42:58.186Z,21.95
2019-02-15T02:45:26.312Z,22.50
2019-02-15T02:47:54.366Z,24.23
2019-02-15T02:50:22.460Z,23.35
2019-02-15T02:52:50.671Z,21.05
2019-02-15T02:55:18.625Z,23.38
2019-02-15T02:57:46.651Z,20.90
2019-02-15T03:00:14.675Z,22.40
2019-02-15T03:02:42.919Z,23.80
2019-02-15T03:05:11.511Z,22.60
2019-02-15T03:07:39.434Z,24.25
2019-02-15T03:10:07.544Z,24.45
2019-02-15T03:12:35.587Z,23.60
2019-02-15T03:15:03.842Z,23.77
2019-02-15T03:17:31.808Z,25.12
2019-02-15T03:20:00.188Z,25.60
2019-02-15T03:22:28.669Z,25.17
2019-02-15T03:24:56.715Z,24.77
2019-02-15T03:27:24.695Z,25.20
2019-02-15T03:29:52.627Z,22.20
2019-02-15T03:32:20.569Z,23.20
2019-02-15T03:34:48.719Z,22.60
2019-02-15T03:37:32.901Z,23.15
2019-02-15T03:40:12.838Z,22.90
2019-02-15T03:42:40.856Z,23.22
2019-02-15T03:45:08.805Z,22.85
2019-02-15T03:47:36.755Z,21.82
2019-02-15T03:50:05.307Z,21.87
2019-02-15T03:52:33.253Z,23.95
2019-02-15T03:55:01.588Z,22.80
2019-02-15T03:57:29.522Z,23.62
2019-02-15T03:59:57.862Z,22.05
2019-02-15T04:02:26.209Z,22.73
2019-02-15T04:04:54.209Z,23.15
2019-02-15T04:07:22.672Z,23.18
2019-02-15T04:09:50.552Z,24.67
2019-02-15T04:12:18.487Z,23.07
2019-02-15T04:14:46.321Z,22.42
2019-02-15T04:17:14.533Z,20.10
2019-02-15T04:19:43.081Z,22.62
2019-02-15T04:22:11.176Z,20.60
2019-02-15T04:24:39.246Z,22.00
2019-02-15T04:27:07.076Z,22.55
2019-02-15T04:29:35.062Z,23.00
2019-02-15T04:32:03.261Z,22.22
2019-02-15T04:34:31.235Z,23.47
2019-02-15T04:36:59.414Z,19.67
2019-02-15T04:39:27.452Z,23.25
2019-02-15T04:41:55.382Z,21.15
2019-02-15T04:44:23.776Z,20.02
2019-02-15T04:46:52.092Z,21.20
2019-02-15T04:49:20.085Z,20.77
2019-02-15T04:51:48.188Z,20.62
2019-02-15T04:54:16.196Z,23.95
2019-02-15T04:56:44.216Z,22.93
2019-02-15T04:59:12.203Z,24.07
2019-02-15T05:01:40.499Z,23.75
2019-02-15T05:04:08.409Z,23.47
2019-02-15T05:06:36.336Z,22.87
2019-02-15T05:09:05.205Z,22.77
2019-02-15T05:11:33.316Z,22.32
2019-02-15T05:14:01.376Z,24.43
2019-02-15T05:16:29.397Z,22.10
2019-02-15T05:18:57.453Z,22.15
2019-02-15T05:21:25.319Z,21.90
2019-02-15T05:23:53.345Z,20.97
2019-02-15T05:26:21.278Z,21.27
2019-02-15T05:28:49.483Z,21.00
2019-02-15T05:31:17.929Z,18.45
2019-02-15T05:33:46.191Z,20.25
2019-02-15T05:36:14.303Z,20.15
2019-02-15T05:38:42.346Z,19.35
2019-02-15T05:41:10.254Z,20.20
2019-02-15T05:43:40.606Z,19.00
2019-02-15T05:46:08.588Z,20.17
2019-02-15T05:48:36.470Z,19.35
2019-02-15T05:51:04.394Z,18.98
2019-02-15T05:53:32.295Z,21.12
2019-02-15T05:56:00.230Z,20.30
2019-02-15T05:58:28.783Z,20.70
2019-02-15T06:00:56.802Z,21.52
2019-02-15T06:03:25.145Z,21.30
2019-02-15T06:05:53.180Z,22.95
2019-02-15T06:08:21.419Z,24.82
2019-02-15T06:10:49.505Z,21.55
2019-02-15T06:13:17.876Z,21.75
2019-02-15T06:15:46.230Z,23.95
2019-02-15T06:18:14.598Z,21.97
2019-02-15T06:20:42.614Z,23.35
2019-02-15T06:23:10.608Z,24.05
2019-02-15T06:25:39.160Z,22.00
2019-02-15T06:28:07.613Z,22.95
2019-02-15T06:30:35.604Z,22.15
2019-02-15T06:33:03.556Z,24.15
2019-02-15T06:35:33.140Z,23.65
2019-02-15T06:38:01.972Z,25.20
2019-02-15T06:40:30.071Z,25.80
2019-02-15T06:43:00.507Z,24.27
2019-02-15T06:45:28.541Z,25.70
2019-02-15T06:47:56.691Z,24.55
2019-02-15T06:50:24.692Z,26.55
2019-02-15T06:52:52.698Z,26.00
2019-02-15T06:55:20.725Z,25.30
2019-02-15T06:57:49.765Z,26.30
2019-02-15T07:00:37.256Z,25.37
2019-02-15T07:03:37.184Z,25.43
2019-02-15T07:06:05.077Z,25.35
2019-02-15T07:08:33.108Z,26.70
2019-02-15T07:11:01.080Z,26.73
2019-02-15T07:13:29.292Z,26.07
2019-02-15T07:15:57.736Z,28.00
2019-02-15T07:18:25.754Z,27.17
2019-02-15T07:20:54.095Z,26.77
2019-02-15T07:23:22.062Z,26.30
2019-02-15T07:25:50.078Z,26.42
2019-02-15T07:28:18.201Z,27.70
2019-02-15T07:30:46.539Z,26.60
2019-02-15T07:33:14.452Z,25.50
2019-02-15T07:35:42.578Z,24.18
2019-02-15T07:38:10.539Z,24.60
2019-02-15T07:40:39.019Z,26.10
2019-02-15T07:43:07.096Z,25.77
2019-02-15T07:45:42.635Z,25.77
2019-02-15T07:48:04.941Z,25.77
2019-02-15T07:50:33.240Z,25.55
2019-02-15T07:53:01.869Z,28.02
2019-02-15T07:55:29.921Z,25.35
2019-02-15T07:57:57.865Z,25.30
2019-02-15T08:00:26.173Z,24.92
2019-02-15T08:02:54.112Z,23.07
2019-02-15T08:05:23.538Z,24.10
2019-02-15T08:07:51.843Z,22.30
2019-02-15T08:10:19.729Z,23.00
2019-02-15T08:12:47.621Z,22.62
2019-02-15T08:15:16.183Z,23.12
2019-02-15T08:17:44.731Z,22.40
2019-02-15T08:20:12.793Z,21.25
2019-02-15T08:22:41.236Z,22.77
2019-02-15T08:25:09.469Z,23.20
2019-02-15T08:27:37.581Z,22.00
2019-02-15T08:30:08.426Z,23.87
2019-02-15T08:32:36.569Z,22.02
2019-02-15T08:35:05.561Z,23.20
2019-02-15T08:37:33.700Z,22.60
2019-02-15T08:40:02.411Z,19.60
2019-02-15T08:42:30.752Z,19.75
2019-02-15T08:44:59.425Z,21.10
2019-02-15T08:47:27.986Z,18.90
2019-02-15T08:49:57.868Z,21.07
2019-02-15T08:52:26.213Z,19.07
2019-02-15T08:54:54.196Z,21.45
2019-02-15T08:57:22.184Z,19.40
2019-02-15T08:59:50.195Z,17.67
2019-02-15T09:02:21.539Z,17.98
2019-02-15T09:04:49.484Z,18.00
2019-02-15T09:07:17.672Z,17.40
2019-02-15T09:09:45.706Z,16.90
2019-02-15T09:12:13.610Z,16.27
2019-02-15T09:14:41.526Z,17.70
2019-02-15T09:17:09.771Z,16.17
2019-02-15T09:19:37.806Z,18.50
2019-02-15T09:22:06.062Z,17.57
2019-02-15T09:24:34.691Z,16.55
2019-02-15T09:27:13.357Z,15.50
2019-02-15T09:29:41.369Z,16.93
2019-02-15T09:32:09.383Z,16.97
2019-02-15T09:34:37.294Z,15.78
2019-02-15T09:37:05.316Z,16.25
2019-02-15T09:39:33.250Z,17.27
2019-02-15T09:42:01.433Z,17.37
2019-02-15T09:44:29.961Z,17.90
2019-02-15T09:46:58.006Z,16.67
2019-02-15T09:49:26.039Z,17.73
2019-02-15T09:51:55.565Z,18.17
2019-02-15T09:54:24.162Z,16.85
2019-02-15T09:56:52.124Z,16.90
2019-02-15T09:59:19.997Z,17.92
2019-02-15T10:01:47.947Z,19.02
2019-02-15T10:04:16.456Z,18.32
2019-02-15T10:06:44.969Z,19.42
2019-02-15T10:09:13.039Z,19.75
2019-02-15T10:11:41.274Z,19.52
2019-02-15T10:14:09.278Z,20.80
2019-02-15T10:16:37.396Z,20.75
2019-02-15T10:19:05.320Z,20.37
2019-02-15T10:21:33.317Z,19.75
2019-02-15T10:24:01.628Z,19.60
2019-02-15T10:26:29.622Z,18.10
2019-02-15T10:28:58.044Z,17.25
2019-02-15T10:31:27.371Z,21.40
2019-02-15T10:33:55.359Z,18.20
2019-02-15T10:36:23.520Z,17.42
2019-02-15T10:38:53.638Z,16.87
2019-02-15T10:41:21.710Z,17.85
2019-02-15T10:43:49.988Z,15.68
2019-02-15T10:46:17.867Z,18.25
2019-02-15T10:48:46.052Z,21.30
2019-02-15T10:51:14.017Z,18.85
2019-02-15T10:53:41.965Z,23.42
2019-02-15T10:56:10.946Z,20.72
2019-02-15T10:58:39.144Z,23.80
2019-02-15T11:01:07.293Z,22.13
2019-02-15T11:03:36.635Z,20.15
2019-02-15T11:06:05.513Z,17.62
2019-02-15T11:08:33.531Z,17.17
2019-02-15T11:11:01.621Z,16.73
2019-02-15T11:13:29.739Z,18.07
2019-02-15T11:15:57.770Z,16.95
2019-02-15T11:18:26.437Z,17.60
2019-02-15T11:20:54.316Z,17.07
2019-02-15T11:23:22.785Z,16.57
2019-02-15T11:25:50.791Z,16.15
2019-02-15T11:28:18.994Z,13.25
2019-02-15T11:30:46.853Z,14.70
2019-02-15T11:33:14.878Z,14.65
2019-02-15T11:35:42.834Z,14.45
2019-02-15T11:38:11.500Z,15.05
2019-02-15T11:40:39.613Z,14.25
2019-02-15T11:43:07.724Z,14.03
2019-02-15T11:45:35.690Z,13.70
2019-02-15T11:48:04.034Z,13.30
2019-02-15T11:50:32.384Z,13.62
2019-02-15T11:53:00.524Z,14.70
2019-02-15T11:55:28.907Z,15.13
2019-02-15T11:57:57.273Z,14.85
2019-02-15T12:00:31.518Z,14.68
2019-02-15T12:02:59.489Z,15.03
2019-02-15T12:05:27.523Z,14.73
2019-02-15T12:07:55.744Z,14.75
2019-02-15T12:10:23.651Z,15.43
2019-02-15T12:12:51.633Z,16.12
2019-02-15T12:15:19.807Z,14.13
2019-02-15T12:17:48.142Z,17.65
2019-02-15T12:20:16.253Z,14.93
2019-02-15T12:22:44.738Z,14.20
2019-02-15T12:25:12.888Z,15.63
2019-02-15T12:27:41.061Z,15.13
2019-02-15T12:30:10.348Z,14.60
2019-02-15T12:32:38.465Z,14.83
2019-02-15T12:35:07.224Z,13.45
2019-02-15T12:37:35.246Z,11.73
2019-02-15T12:40:03.692Z,13.72
2019-02-15T12:42:32.199Z,13.00
2019-02-15T12:45:00.310Z,15.20
2019-02-15T12:47:28.383Z,13.05
2019-02-15T12:49:56.272Z,14.43
2019-02-15T12:52:24.686Z,13.28
2019-02-15T12:54:53.021Z,14.10
2019-02-15T12:57:20.936Z,13.70
2019-02-15T12:59:48.938Z,13.55
2019-02-15T13:02:17.055Z,13.08
2019-02-15T13:04:45.348Z,14.25
2019-02-15T13:07:13.436Z,13.35
2019-02-15T13:09:41.803Z,14.18
2019-02-15T13:12:09.694Z,12.35
2019-02-15T13:14:37.634Z,13.20
2019-02-15T13:17:06.441Z,13.05
2019-02-15T13:19:34.476Z,12.60
2019-02-15T13:22:02.611Z,12.73
2019-02-15T13:24:30.598Z,13.65
2019-02-15T13:26:58.726Z,13.18
2019-02-15T13:29:26.694Z,12.10
2019-02-15T13:31:54.796Z,12.07
2019-02-15T13:34:22.703Z,11.80
2019-02-15T13:36:51.434Z,12.30
2019-02-15T13:39:19.843Z,13.10
2019-02-15T13:41:48.127Z,12.60
2019-02-15T13:44:17.960Z,12.05
2019-02-15T13:46:46.193Z,11.45
2019-02-15T13:49:14.272Z,10.35
2019-02-15T13:51:42.628Z,11.08
2019-02-15T13:54:10.874Z,11.03
2019-02-15T13:56:40.527Z,9.90
2019-02-15T13:59:09.132Z,9.93
2019-02-15T14:01:37.089Z,11.20
2019-02-15T14:04:05.630Z,11.08
2019-02-15T14:06:33.698Z,10.18
2019-02-15T14:09:01.668Z,8.90
2019-02-15T14:11:29.743Z,9.50
2019-02-15T14:13:57.746Z,10.15
2019-02-15T14:16:25.701Z,8.93
2019-02-15T14:18:53.919Z,7.75
2019-02-15T14:21:22.204Z,7.95
2019-02-15T14:23:50.391Z,6.95
2019-02-15T14:26:18.578Z,3.22
2019-02-15T14:28:47.094Z,2.85
2019-02-15T14:31:15.206Z,3.33
2019-02-15T14:33:43.204Z,3.65
2019-02-15T14:36:11.578Z,3.17
2019-02-15T14:38:39.603Z,3.02
2019-02-15T14:41:07.795Z,2.72
2019-02-15T14:43:36.399Z,2.98
2019-02-15T14:46:04.434Z,3.20
2019-02-15T14:48:32.878Z,2.60
2019-02-15T14:51:01.225Z,3.05
2019-02-15T14:53:29.244Z,2.50
2019-02-15T14:55:57.660Z,2.45
2019-02-15T14:58:25.855Z,2.60
2019-02-15T15:00:54.212Z,2.37
2019-02-15T15:03:22.555Z,2.55
2019-02-15T15:05:50.558Z,2.30
2019-02-15T15:08:18.605Z,2.58
2019-02-15T15:10:46.619Z,2.98
2019-02-15T15:13:14.860Z,3.30
2019-02-15T15:15:43.439Z,3.92
2019-02-15T15:18:13.410Z,3.08
2019-02-15T15:20:41.538Z,2.85
2019-02-15T15:23:15.809Z,2.33
2019-02-15T15:25:44.275Z,3.75
2019-02-15T15:28:12.398Z,2.37
2019-02-15T15:30:40.474Z,3.42
2019-02-15T15:33:08.440Z,4.08
2019-02-15T15:35:36.307Z,3.27
2019-02-15T15:38:04.761Z,2.95
2019-02-15T15:40:32.800Z,2.95
2019-02-15T15:43:00.856Z,2.55
2019-02-15T15:45:28.967Z,4.62
2019-02-15T15:47:57.167Z,4.50
2019-02-15T15:50:25.678Z,3.05
2019-02-15T15:52:53.754Z,3.50
2019-02-15T15:55:21.857Z,3.62
2019-02-15T15:57:50.198Z,4.45
2019-02-15T16:00:18.883Z,4.10
2019-02-15T16:02:47.163Z,4.60
2019-02-15T16:05:15.226Z,4.30
2019-02-15T16:07:46.384Z,3.62
2019-02-15T16:10:14.643Z,4.08
2019-02-15T16:12:42.771Z,4.95
2019-02-15T16:15:11.942Z,3.62
2019-02-15T16:17:40.785Z,3.40
2019-02-15T16:20:10.251Z,3.20
2019-02-15T16:22:38.512Z,5.35
2019-02-15T16:25:06.902Z,4.55
2019-02-15T16:27:35.230Z,3.33
2019-02-15T16:30:03.733Z,3.87
2019-02-15T16:32:31.831Z,3.80
2019-02-15T16:34:59.946Z,4.75
2019-02-15T16:37:27.884Z,2.98
2019-02-15T16:39:55.805Z,3.02
2019-02-15T16:42:23.763Z,3.60
2019-02-15T16:44:52.201Z,3.85
2019-02-15T16:47:20.303Z,3.50
2019-02-15T16:49:48.289Z,3.45
2019-02-15T16:52:16.386Z,3.70
2019-02-15T16:54:44.778Z,3.85
2019-02-15T16:57:12.769Z,3.22
2019-02-15T16:59:40.764Z,4.55
2019-02-15T17:02:08.792Z,3.33
2019-02-15T17:04:37.056Z,4.70
2019-02-15T17:07:05.045Z,4.05
2019-02-15T17:09:33.041Z,7.10
2019-02-15T17:12:01.473Z,6.80
2019-02-15T17:14:29.450Z,8.63
2019-02-15T17:16:57.282Z,8.73
2019-02-15T17:19:25.432Z,5.62
2019-02-15T17:21:53.438Z,6.33
2019-02-15T17:24:21.549Z,6.87
2019-02-15T17:26:51.013Z,7.05
2019-02-15T17:29:19.135Z,7.53
2019-02-15T17:31:47.355Z,6.95
2019-02-15T17:34:15.275Z,9.08
2019-02-15T17:36:43.343Z,7.65
2019-02-15T17:39:11.557Z,13.55
2019-02-15T17:41:39.461Z,9.85
2019-02-15T17:44:07.604Z,38.60
2019-02-15T17:46:35.630Z,24.52
2019-02-15T17:49:03.656Z,27.13
2019-02-15T17:51:31.808Z,21.62
2019-02-15T17:53:59.890Z,14.07
2019-02-15T17:56:27.895Z,12.98
2019-02-15T17:58:56.210Z,10.00
2019-02-15T18:01:24.177Z,8.20
2019-02-15T18:03:52.071Z,8.05
2019-02-15T18:06:20.266Z,8.00
2019-02-15T18:08:48.348Z,8.05
2019-02-15T18:11:16.299Z,7.08
2019-02-15T18:13:44.283Z,7.12
2019-02-15T18:16:12.592Z,10.48
2019-02-15T18:18:40.758Z,7.15
2019-02-15T18:21:09.208Z,7.50
2019-02-15T18:23:37.318Z,7.65
2019-02-15T18:26:05.256Z,6.75
2019-02-15T18:28:33.486Z,9.55
2019-02-15T18:31:01.552Z,8.38
2019-02-15T18:33:31.728Z,7.10
2019-02-15T18:36:00.228Z,7.85
2019-02-15T18:38:28.283Z,9.43
2019-02-15T18:40:56.596Z,8.18
2019-02-15T18:43:24.633Z,8.05
2019-02-15T18:45:52.504Z,7.30
2019-02-15T18:48:38.901Z,6.70
2019-02-15T18:51:06.927Z,6.60
2019-02-15T18:53:34.943Z,5.65
2019-02-15T18:56:02.951Z,6.47
2019-02-15T18:58:31.200Z,9.43
2019-02-15T19:00:59.123Z,11.00
2019-02-15T19:03:27.201Z,9.33
2019-02-15T19:05:55.321Z,13.60
2019-02-15T19:08:24.047Z,19.40
2019-02-15T19:10:52.153Z,18.62
2019-02-15T19:13:20.092Z,21.20
2019-02-15T19:15:48.105Z,18.82
2019-02-15T19:18:16.180Z,16.50
2019-02-15T19:20:44.408Z,12.75
2019-02-15T19:23:12.416Z,14.00
2019-02-15T19:25:40.439Z,12.88
2019-02-15T19:28:08.545Z,12.75
2019-02-15T19:30:36.927Z,10.65
2019-02-15T19:33:05.115Z,8.60
2019-02-15T19:35:33.205Z,7.40
2019-02-15T19:38:01.242Z,7.95
2019-02-15T19:40:29.178Z,6.35
2019-02-15T19:42:57.305Z,7.42
2019-02-15T19:45:25.418Z,6.42
2019-02-15T19:47:53.794Z,6.92
2019-02-15T19:50:22.189Z,6.92
2019-02-15T19:52:50.555Z,5.60
2019-02-15T19:55:18.582Z,6.45
2019-02-15T19:57:46.844Z,5.70
2019-02-15T20:00:16.614Z,5.60
2019-02-15T20:02:44.569Z,6.20
2019-02-15T20:05:12.851Z,5.90
2019-02-15T20:07:40.793Z,6.08
2019-02-15T20:10:12.408Z,7.03
2019-02-15T20:12:40.393Z,7.70
2019-02-15T20:15:10.409Z,6.05
2019-02-15T20:17:38.363Z,5.03
2019-02-15T20:20:09.413Z,6.33
2019-02-15T20:22:37.464Z,6.40
2019-02-15T20:25:06.611Z,6.20
2019-02-15T20:27:34.951Z,6.60
2019-02-15T20:30:03.577Z,6.50
2019-02-15T20:32:31.512Z,5.80
2019-02-15T20:34:59.564Z,6.10
2019-02-15T20:37:27.582Z,5.55
2019-02-15T20:39:55.885Z,5.42
2019-02-15T20:42:23.997Z,5.47
2019-02-15T20:44:52.042Z,5.62
2019-02-15T20:47:20.351Z,6.05
2019-02-15T20:49:57.519Z,6.50
2019-02-15T20:52:18.288Z,5.67
2019-02-15T20:54:47.069Z,6.00
2019-02-15T20:57:14.986Z,5.85
2019-02-15T20:59:43.479Z,5.53
2019-02-15T21:02:11.504Z,5.15
2019-02-15T21:04:39.424Z,4.55
2019-02-15T21:07:07.328Z,5.72
2019-02-15T21:09:35.340Z,4.78
2019-02-15T21:12:03.394Z,4.35
2019-02-15T21:14:31.434Z,4.65
2019-02-15T21:16:59.524Z,5.42
2019-02-15T21:19:27.571Z,5.08
2019-02-15T21:21:55.703Z,5.50
2019-02-15T21:24:24.248Z,4.92
2019-02-15T21:26:52.329Z,4.50
2019-02-15T21:29:20.598Z,5.20
2019-02-15T21:31:48.898Z,6.08
2019-02-15T21:34:17.219Z,5.60
2019-02-15T21:36:45.691Z,4.85
2019-02-15T21:39:13.708Z,4.08
2019-02-15T21:41:41.621Z,5.22
2019-02-15T21:44:09.729Z,4.78
2019-02-15T21:46:37.671Z,4.65
2019-02-15T21:49:05.651Z,5.42
2019-02-15T21:51:33.657Z,4.78
2019-02-15T21:54:01.705Z,4.90
2019-02-15T21:56:29.829Z,3.98
2019-02-15T21:58:57.859Z,3.52
2019-02-15T22:01:25.746Z,3.72
2019-02-15T22:03:53.695Z,4.12
2019-02-15T22:06:21.588Z,3.90
2019-02-15T22:08:50.078Z,3.90
2019-02-15T22:11:18.157Z,4.60
2019-02-15T22:13:46.115Z,4.20
2019-02-15T22:16:14.005Z,5.20
2019-02-15T22:18:42.091Z,4.22
2019-02-15T22:21:10.280Z,5.15
2019-02-15T22:23:38.410Z,5.90
2019-02-15T22:26:06.767Z,3.95
2019-02-15T22:28:34.865Z,4.20
2019-02-15T22:31:03.334Z,3.30
2019-02-15T22:33:32.254Z,4.15
2019-02-15T22:36:00.501Z,3.20
2019-02-15T22:38:28.743Z,3.40
2019-02-15T22:41:12.183Z,3.33
2019-02-15T22:43:41.624Z,3.10
2019-02-15T22:46:09.610Z,2.72
2019-02-15T22:48:37.663Z,3.35
2019-02-15T22:51:05.861Z,3.70
2019-02-15T22:53:33.800Z,4.00
2019-02-15T22:56:01.780Z,3.58
2019-02-15T22:58:30.040Z,3.50
2019-02-15T23:01:06.641Z,4.33
2019-02-15T23:03:35.764Z,4.20
2019-02-15T23:06:03.903Z,3.85
2019-02-15T23:08:32.317Z,3.80
2019-02-15T23:11:00.548Z,4.62
2019-02-15T23:13:28.610Z,4.97
2019-02-15T23:15:56.700Z,4.47
2019-02-15T23:18:24.791Z,4.22
2019-02-15T23:20:52.992Z,4.20
2019-02-15T23:23:21.205Z,4.35
2019-02-15T23:25:49.101Z,4.37
2019-02-15T23:28:17.489Z,3.60
2019-02-15T23:30:45.611Z,4.55
2019-02-15T23:33:13.906Z,4.65
2019-02-15T23:35:42.473Z,4.35
2019-02-15T23:38:10.543Z,3.70
2019-02-15T23:40:38.528Z,4.50
2019-02-15T23:43:06.525Z,4.20
2019-02-15T23:45:34.568Z,4.78
2019-02-15T23:48:02.841Z,3.77
2019-02-15T23:50:30.891Z,3.80
2019-02-15T23:52:58.921Z,4.45
2019-02-15T23:55:26.921Z,4.72
2019-02-15T23:57:55.047Z,6.35
